createdAt,value
2019-04-10T00:02:01.911Z,99.90
2019-04-10T00:06:06.660Z,99.90
2019-04-10T00:10:11.784Z,99.90
2019-04-10T00:14:16.423Z,99.90
2019-04-10T00:18:20.114Z,99.90
2019-04-10T00:22:24.320Z,99.90
2019-04-10T00:26:27.981Z,99.90
2019-04-10T00:30:31.559Z,99.90
2019-04-10T00:34:35.827Z,99.90
2019-04-10T00:38:39.981Z,99.90
2019-04-10T00:42:43.708Z,99.90
2019-04-10T00:46:47.287Z,99.90
2019-04-10T00:50:50.973Z,99.90
2019-04-10T00:54:55.358Z,99.90
2019-04-10T00:58:59.607Z,99.90
2019-04-10T01:03:03.255Z,99.90
2019-04-10T01:07:06.840Z,99.90
2019-04-10T01:11:10.673Z,99.90
2019-04-10T01:15:14.391Z,99.90
2019-04-10T01:19:20.781Z,99.90
2019-04-10T01:23:24.778Z,99.90
2019-04-10T01:27:28.437Z,99.90
2019-04-10T01:31:32.061Z,99.90
2019-04-10T01:35:35.627Z,99.90
2019-04-10T01:39:40.189Z,99.90
2019-04-10T01:43:43.927Z,99.90
2019-04-10T01:47:47.648Z,99.90
2019-04-10T01:51:51.873Z,99.90
2019-04-10T01:55:55.636Z,99.90
2019-04-10T01:59:59.178Z,99.90
2019-04-10T02:04:02.772Z,99.90
2019-04-10T02:08:09.016Z,99.90
2019-04-10T02:12:12.473Z,99.90
2019-04-10T02:16:16.733Z,99.90
2019-04-10T02:20:21.027Z,99.90
2019-04-10T02:24:25.221Z,99.90
2019-04-10T02:28:29.169Z,99.90
2019-04-10T02:32:32.715Z,99.90
2019-04-10T02:36:36.404Z,99.90
2019-04-10T02:40:41.553Z,99.90
2019-04-10T02:44:45.875Z,99.90
2019-04-10T02:48:50.089Z,99.90
2019-04-10T02:52:54.933Z,99.90
2019-04-10T02:56:58.773Z,99.90
2019-04-10T03:01:03.182Z,99.90
2019-04-10T03:05:07.257Z,99.90
2019-04-10T03:09:30.527Z,99.90
2019-04-10T03:13:17.421Z,99.90
2019-04-10T03:17:21.568Z,99.90
2019-04-10T03:21:25.147Z,99.90
2019-04-10T03:25:28.905Z,99.90
2019-04-10T03:29:32.674Z,99.90
2019-04-10T03:33:46.667Z,99.90
2019-04-10T03:37:46.661Z,99.90
2019-04-10T03:41:50.915Z,99.90
2019-04-10T03:45:55.110Z,99.90
2019-04-10T03:49:58.783Z,99.90
2019-04-10T03:54:02.716Z,99.90
2019-04-10T03:58:07.138Z,99.90
2019-04-10T04:02:11.619Z,99.90
2019-04-10T04:06:15.490Z,99.90
2019-04-10T04:10:20.395Z,99.90
2019-04-10T04:14:24.237Z,99.90
2019-04-10T04:18:28.887Z,99.90
2019-04-10T04:22:32.704Z,99.90
2019-04-10T04:26:37.182Z,99.90
2019-04-10T04:30:41.926Z,99.90
2019-04-10T04:34:45.592Z,99.90
2019-04-10T04:38:49.232Z,99.90
2019-04-10T04:42:53.587Z,99.90
2019-04-10T04:46:57.515Z,99.90
2019-04-10T04:51:01.371Z,99.90
2019-04-10T04:55:05.946Z,99.90
2019-04-10T04:59:10.199Z,99.90
2019-04-10T05:03:13.857Z,99.90
2019-04-10T05:07:17.926Z,99.90
2019-04-10T05:11:22.332Z,99.90
2019-04-10T05:15:26.904Z,99.90
2019-04-10T05:19:30.545Z,99.90
2019-04-10T05:23:35.060Z,99.90
2019-04-10T05:27:39.264Z,99.90
2019-04-10T05:31:42.910Z,99.90
2019-04-10T05:35:46.491Z,99.90
2019-04-10T05:39:51.991Z,99.90
2019-04-10T05:43:55.397Z,99.90
2019-04-10T05:47:59.071Z,99.90
2019-04-10T05:52:02.691Z,99.90
2019-04-10T05:56:06.699Z,99.90
2019-04-10T06:00:12.426Z,99.90
2019-04-10T06:04:16.895Z,99.90
2019-04-10T06:08:21.505Z,99.90
2019-04-10T06:12:26.401Z,99.90
2019-04-10T06:16:30.333Z,99.90
2019-04-10T06:20:33.929Z,99.90
2019-04-10T06:24:38.481Z,99.90
2019-04-10T06:28:42.260Z,99.90
2019-04-10T06:32:45.964Z,99.90
2019-04-10T06:36:49.559Z,99.90
2019-04-10T06:44:58.586Z,99.90
2019-04-10T06:49:03.090Z,99.90
2019-04-10T06:53:06.780Z,99.30
2019-04-10T06:57:10.471Z,99.40
2019-04-10T07:01:14.795Z,98.00
2019-04-10T07:05:18.393Z,98.30
2019-04-10T07:09:25.177Z,96.90
2019-04-10T07:13:30.082Z,96.20
2019-04-10T07:17:38.321Z,95.70
2019-04-10T07:21:39.183Z,94.50
2019-04-10T07:25:45.520Z,93.90
2019-04-10T07:29:50.836Z,92.40
2019-04-10T07:33:53.627Z,91.80
2019-04-10T07:37:58.469Z,91.60
2019-04-10T07:42:04.061Z,91.20
2019-04-10T07:46:07.951Z,89.80
2019-04-10T07:50:12.215Z,91.00
2019-04-10T07:54:20.825Z,85.80
2019-04-10T07:58:23.627Z,81.00
2019-04-10T08:02:27.587Z,84.20
2019-04-10T08:06:31.192Z,83.40
2019-04-10T08:10:34.860Z,81.70
2019-04-10T08:14:38.455Z,75.20
2019-04-10T08:18:42.052Z,73.40
2019-04-10T08:22:46.763Z,75.30
2019-04-10T08:26:50.592Z,70.30
2019-04-10T08:30:54.674Z,70.00
2019-04-10T08:34:58.554Z,66.90
2019-04-10T08:39:02.633Z,68.90
2019-04-10T08:43:06.370Z,69.80
2019-04-10T08:47:11.033Z,70.80
2019-04-10T08:51:14.937Z,70.40
2019-04-10T08:55:18.734Z,75.40
2019-04-10T08:59:23.585Z,72.60
2019-04-10T09:03:27.329Z,71.90
2019-04-10T09:07:30.912Z,70.60
2019-04-10T09:11:35.396Z,63.60
2019-04-10T09:15:40.188Z,60.20
2019-04-10T09:19:44.360Z,66.20
2019-04-10T09:23:52.880Z,65.70
2019-04-10T09:27:53.907Z,65.70
2019-04-10T09:31:57.786Z,63.80
2019-04-10T09:36:02.638Z,60.90
2019-04-10T09:40:12.342Z,62.20
2019-04-10T09:44:16.482Z,61.90
2019-04-10T09:48:27.131Z,56.60
2019-04-10T09:57:32.170Z,49.10
2019-04-10T10:01:20.096Z,49.70
2019-04-10T10:05:23.787Z,57.30
2019-04-10T10:09:29.145Z,57.60
2019-04-10T10:13:32.571Z,56.30
2019-04-10T10:17:37.076Z,55.00
2019-04-10T10:21:40.864Z,51.30
2019-04-10T10:25:45.637Z,49.30
2019-04-10T10:29:50.351Z,49.80
2019-04-10T10:33:55.103Z,49.70
2019-04-10T10:37:59.276Z,55.00
2019-04-10T10:42:03.308Z,52.10
2019-04-10T10:46:07.239Z,49.00
2019-04-10T10:50:11.584Z,50.10
2019-04-10T10:54:15.163Z,49.60
2019-04-10T10:58:19.667Z,49.00
2019-04-10T11:02:23.404Z,47.90
2019-04-10T11:06:27.087Z,49.10
2019-04-10T11:10:31.431Z,55.40
2019-04-10T11:14:35.469Z,50.00
2019-04-10T11:18:40.314Z,51.50
2019-04-10T11:22:44.874Z,49.60
2019-04-10T11:26:50.201Z,52.00
2019-04-10T11:30:53.755Z,54.20
2019-04-10T11:34:57.340Z,50.60
2019-04-10T11:39:11.906Z,49.70
2019-04-10T11:43:07.678Z,50.70
2019-04-10T11:47:12.472Z,50.40
2019-04-10T11:51:16.485Z,52.60
2019-04-10T11:55:25.092Z,49.30
2019-04-10T11:59:26.247Z,49.90
2019-04-10T12:03:31.350Z,47.90
2019-04-10T12:11:41.541Z,48.00
2019-04-10T12:15:45.207Z,52.10
2019-04-10T12:19:48.818Z,49.90
2019-04-10T12:23:53.413Z,48.60
2019-04-10T12:27:57.793Z,51.20
2019-04-10T12:32:01.562Z,48.00
2019-04-10T12:36:07.664Z,49.90
2019-04-10T12:40:11.839Z,49.80
2019-04-10T12:44:15.854Z,48.70
2019-04-10T12:48:19.476Z,47.90
2019-04-10T12:52:23.076Z,52.80
2019-04-10T12:56:26.675Z,49.60
2019-04-10T13:00:30.278Z,49.10
2019-04-10T13:04:33.862Z,49.90
2019-04-10T13:08:52.598Z,49.70
2019-04-10T13:12:42.712Z,51.30
2019-04-10T13:16:46.355Z,49.30
2019-04-10T13:20:50.295Z,50.00
2019-04-10T13:24:54.153Z,49.80
2019-04-10T13:28:58.108Z,50.80
2019-04-10T13:33:02.562Z,49.90
2019-04-10T13:37:06.294Z,54.60
2019-04-10T13:41:10.325Z,51.60
2019-04-10T13:45:17.437Z,54.40
2019-04-10T13:49:21.979Z,51.80
2019-04-10T13:53:26.126Z,54.10
2019-04-10T13:57:30.643Z,50.20
2019-04-10T14:01:35.734Z,52.40
2019-04-10T14:05:39.348Z,49.60
2019-04-10T14:09:48.422Z,47.90
2019-04-10T14:13:48.366Z,51.20
2019-04-10T14:17:52.170Z,50.40
2019-04-10T14:21:55.803Z,47.00
2019-04-10T14:26:17.549Z,50.10
2019-04-10T14:30:32.135Z,48.30
2019-04-10T14:34:36.660Z,46.90
2019-04-10T14:38:41.212Z,47.00
2019-04-10T14:42:45.179Z,49.60
2019-04-10T14:46:49.691Z,47.00
2019-04-10T14:50:53.328Z,45.50
2019-04-10T14:54:57.033Z,43.30
2019-04-10T14:59:01.087Z,47.00
2019-04-10T15:03:06.455Z,46.30
2019-04-10T15:07:10.193Z,49.00
2019-04-10T15:11:14.162Z,44.60
2019-04-10T15:15:18.663Z,45.20
2019-04-10T15:19:22.852Z,46.50
2019-04-10T15:23:27.434Z,48.20
2019-04-10T15:27:31.328Z,49.10
2019-04-10T15:31:35.456Z,48.20
2019-04-10T15:35:39.571Z,50.60
2019-04-10T15:39:44.589Z,52.10
2019-04-10T15:43:48.315Z,49.80
2019-04-10T15:47:54.564Z,49.70
2019-04-10T15:51:57.272Z,52.30
2019-04-10T15:56:01.315Z,53.60
2019-04-10T16:00:10.638Z,55.10
2019-04-10T16:04:14.951Z,56.30
2019-04-10T16:08:20.347Z,55.50
2019-04-10T16:12:25.030Z,52.90
2019-04-10T16:16:36.850Z,52.60
2019-04-10T16:20:41.194Z,51.70
2019-04-10T16:24:45.034Z,51.90
2019-04-10T16:28:48.670Z,53.50
2019-04-10T16:32:52.354Z,55.30
2019-04-10T16:36:56.108Z,55.90
2019-04-10T16:41:00.484Z,56.00
2019-04-10T16:45:06.325Z,57.50
2019-04-10T16:49:10.641Z,58.10
2019-04-10T16:53:14.267Z,58.70
2019-04-10T16:57:18.514Z,59.50
2019-04-10T17:01:22.527Z,63.00
2019-04-10T17:05:26.362Z,64.70
2019-04-10T17:09:30.305Z,65.30
2019-04-10T17:13:34.869Z,63.80
2019-04-10T17:17:38.831Z,64.10
2019-04-10T17:21:42.644Z,65.90
2019-04-10T17:25:48.608Z,65.20
2019-04-10T17:29:51.590Z,66.30
2019-04-10T17:33:56.490Z,67.00
2019-04-10T17:38:00.308Z,68.10
2019-04-10T17:42:04.101Z,68.10
2019-04-10T17:46:09.099Z,68.90
2019-04-10T17:50:16.129Z,69.70
2019-04-10T17:54:20.105Z,70.60
2019-04-10T17:58:23.833Z,72.10
2019-04-10T18:02:27.664Z,73.80
2019-04-10T18:06:31.585Z,73.90
2019-04-10T18:10:46.508Z,75.00
2019-04-10T18:14:42.535Z,75.90
2019-04-10T18:18:47.322Z,77.20
2019-04-10T18:22:53.250Z,80.90
2019-04-10T18:26:58.416Z,81.00
2019-04-10T18:31:02.819Z,82.50
2019-04-10T18:35:08.771Z,82.90
2019-04-10T18:39:15.717Z,84.00
2019-04-10T18:43:22.248Z,84.00
2019-04-10T18:47:27.028Z,84.30
2019-04-10T18:51:32.020Z,84.80
2019-04-10T18:55:36.450Z,84.60
2019-04-10T18:59:49.062Z,84.20
2019-04-10T19:03:58.268Z,84.70
2019-04-10T19:08:00.803Z,85.20
2019-04-10T19:12:04.723Z,86.80
2019-04-10T19:16:08.805Z,86.90
2019-04-10T19:20:13.509Z,87.70
2019-04-10T19:24:17.809Z,90.40
2019-04-10T19:28:30.302Z,89.80
2019-04-10T19:32:30.048Z,90.20
2019-04-10T19:36:34.421Z,90.80
2019-04-10T19:40:38.722Z,92.00
2019-04-10T19:44:43.518Z,92.70
2019-04-10T19:48:49.867Z,93.20
2019-04-10T19:52:52.842Z,93.60
2019-04-10T19:56:57.114Z,94.90
2019-04-10T20:01:01.124Z,95.60
2019-04-10T20:05:07.414Z,96.60
2019-04-10T20:09:11.108Z,96.00
2019-04-10T20:13:14.683Z,96.10
2019-04-10T20:17:18.352Z,96.00
2019-04-10T20:21:26.483Z,96.40
2019-04-10T20:25:32.543Z,97.30
2019-04-10T20:29:35.265Z,97.10
2019-04-10T20:33:38.901Z,97.10
2019-04-10T20:37:42.947Z,97.30
2019-04-10T20:41:52.334Z,97.10
2019-04-10T20:45:51.835Z,97.10
2019-04-10T20:49:55.430Z,97.90
2019-04-10T20:54:00.100Z,98.40
2019-04-10T20:58:06.143Z,98.70
2019-04-10T21:02:09.674Z,99.30
2019-04-10T21:06:13.438Z,99.80
2019-04-10T21:10:17.179Z,99.90
2019-04-10T21:14:21.114Z,99.90
2019-04-10T21:18:24.796Z,99.90
2019-04-10T21:22:28.667Z,99.90
2019-04-10T21:26:32.516Z,99.90
2019-04-10T21:30:37.733Z,99.90
2019-04-10T21:34:42.734Z,99.90
2019-04-10T21:38:48.915Z,99.90
2019-04-10T21:42:51.931Z,99.90
2019-04-10T21:46:55.604Z,99.90
2019-04-10T21:50:59.198Z,99.90
2019-04-10T21:55:04.435Z,99.70
2019-04-10T21:59:09.041Z,99.90
2019-04-10T22:03:13.487Z,99.90
2019-04-10T22:07:25.703Z,99.90
2019-04-10T22:11:30.817Z,99.90
2019-04-10T22:15:41.783Z,99.90
2019-04-10T22:19:45.538Z,99.90
2019-04-10T22:23:49.231Z,99.90
2019-04-10T22:27:52.803Z,99.90
2019-04-10T22:31:56.400Z,99.90
2019-04-10T22:36:00.194Z,99.90
2019-04-10T22:40:05.199Z,99.90
2019-04-10T22:44:09.769Z,98.50
2019-04-10T22:48:14.607Z,96.80
2019-04-10T22:52:18.219Z,95.80
2019-04-10T22:56:23.093Z,94.70
2019-04-10T23:00:33.028Z,94.70
2019-04-10T23:04:37.013Z,94.00
2019-04-10T23:08:40.595Z,94.20
2019-04-10T23:12:57.137Z,93.50
2019-04-10T23:16:48.614Z,93.50
2019-04-10T23:20:52.207Z,93.90
2019-04-10T23:24:56.059Z,93.90
2019-04-10T23:29:00.009Z,93.60
2019-04-10T23:33:03.908Z,93.70
2019-04-10T23:37:08.767Z,93.70
2019-04-10T23:41:13.570Z,93.90
2019-04-10T23:45:17.663Z,94.00
2019-04-10T23:49:21.546Z,94.10
2019-04-10T23:53:25.124Z,94.10
2019-04-10T23:57:29.487Z,94.40
